Time;durP1;ratioP1;P1;durP2;ratioP2;P2;SDS_P1;SDS_P2;PMS_P1;PMS_P2;Temp;Humidity;BMP_temperature;BMP_pressure;BME280_temperature;BME280_humidity;BME280_pressure;Samples;Min_cycle;Max_cycle;Signal;HPM_P1;HPM_P2
2021/07/31 00:00:59;;;;;;;28.52;8.40;;;;;;;;;;4990982;28;20089;-38
2021/07/31 00:03:26;;;;;;;40.20;10.02;;;;;;;;;;4992692;28;20065;-39
2021/07/31 00:05:53;;;;;;;37.60;10.48;;;;;;;;;;4994964;28;20073;-38
2021/07/31 00:08:21;;;;;;;39.05;10.30;;;;;;;;;;4993994;28;20050;-38
2021/07/31 00:10:48;;;;;;;45.85;11.13;;;;;;;;;;4992110;28;20062;-38
2021/07/31 00:13:15;;;;;;;49.70;12.23;;;;;;;;;;4994438;28;20030;-39
2021/07/31 00:15:42;;;;;;;47.25;13.20;;;;;;;;;;4994929;28;20052;-44
2021/07/31 00:18:09;;;;;;;46.42;14.07;;;;;;;;;;4990956;28;20433;-41
2021/07/31 00:20:37;;;;;;;57.00;13.82;;;;;;;;;;4990795;28;20428;-38
2021/07/31 00:23:04;;;;;;;53.47;14.00;;;;;;;;;;4991423;28;20402;-39
2021/07/31 00:25:31;;;;;;;49.42;13.63;;;;;;;;;;4993231;28;20547;-46
2021/07/31 00:27:58;;;;;;;60.67;14.98;;;;;;;;;;4993570;28;20089;-46
2021/07/31 00:30:26;;;;;;;58.92;15.02;;;;;;;;;;4993267;28;20029;-40
2021/07/31 00:32:53;;;;;;;68.47;14.82;;;;;;;;;;4992174;28;20092;-39
2021/07/31 00:35:20;;;;;;;56.17;14.40;;;;;;;;;;4989101;28;20042;-40
2021/07/31 00:37:47;;;;;;;52.58;14.75;;;;;;;;;;4994456;28;20030;-48
2021/07/31 00:40:15;;;;;;;56.42;14.45;;;;;;;;;;4991314;28;20026;-39
2021/07/31 00:42:42;;;;;;;51.33;12.93;;;;;;;;;;4991239;28;20067;-37
2021/07/31 00:45:10;;;;;;;51.28;13.13;;;;;;;;;;4990767;28;20018;-38
2021/07/31 00:47:38;;;;;;;46.03;11.93;;;;;;;;;;4989743;28;20482;-38
2021/07/31 00:50:05;;;;;;;44.72;12.57;;;;;;;;;;4985327;28;20047;-38
2021/07/31 00:52:32;;;;;;;44.50;11.55;;;;;;;;;;4982675;28;20031;-45
2021/07/31 00:55:00;;;;;;;47.58;11.93;;;;;;;;;;4992066;28;20025;-42
2021/07/31 00:57:28;;;;;;;45.75;12.18;;;;;;;;;;4993264;28;20023;-38
2021/07/31 00:59:55;;;;;;;52.38;12.07;;;;;;;;;;4990350;28;20047;-45
2021/07/31 01:02:22;;;;;;;43.08;10.75;;;;;;;;;;4991788;28;20038;-38
2021/07/31 01:04:49;;;;;;;41.25;10.02;;;;;;;;;;4991712;28;20396;-47
2021/07/31 01:07:16;;;;;;;43.05;9.82;;;;;;;;;;4989533;28;20026;-41
2021/07/31 01:09:43;;;;;;;42.75;10.10;;;;;;;;;;4986209;28;20058;-39
2021/07/31 01:12:10;;;;;;;36.15;9.70;;;;;;;;;;4988136;28;20065;-43
2021/07/31 01:14:37;;;;;;;38.00;9.35;;;;;;;;;;4981658;28;20478;-38
2021/07/31 01:17:06;;;;;;;41.30;9.50;;;;;;;;;;4987842;28;20046;-37
2021/07/31 01:19:33;;;;;;;44.90;10.10;;;;;;;;;;4989235;28;20058;-42
2021/07/31 01:22:00;;;;;;;35.80;9.25;;;;;;;;;;4988676;28;20517;-41
2021/07/31 01:24:27;;;;;;;47.63;8.93;;;;;;;;;;4991461;28;20019;-43
2021/07/31 01:26:54;;;;;;;33.95;9.23;;;;;;;;;;4989777;28;20057;-49
2021/07/31 01:29:21;;;;;;;33.22;8.55;;;;;;;;;;4990004;28;20026;-37
2021/07/31 01:31:48;;;;;;;32.92;9.23;;;;;;;;;;4987826;28;20080;-37
2021/07/31 01:34:15;;;;;;;32.63;8.40;;;;;;;;;;4989994;28;20052;-36
2021/07/31 01:36:42;;;;;;;32.30;8.85;;;;;;;;;;4990067;28;20426;-40
2021/07/31 01:39:09;;;;;;;29.70;7.80;;;;;;;;;;4988076;28;20398;-38
2021/07/31 01:41:36;;;;;;;35.90;9.27;;;;;;;;;;4989878;28;20018;-39
2021/07/31 01:44:03;;;;;;;35.00;8.48;;;;;;;;;;4990682;28;20026;-45
2021/07/31 01:46:30;;;;;;;39.17;8.85;;;;;;;;;;4989166;28;20473;-38
2021/07/31 01:48:57;;;;;;;35.80;7.95;;;;;;;;;;4988631;28;20030;-39
2021/07/31 01:51:24;;;;;;;33.10;8.52;;;;;;;;;;4982939;28;20371;-39
2021/07/31 01:53:51;;;;;;;31.85;8.30;;;;;;;;;;4983878;28;20348;-41
2021/07/31 01:56:18;;;;;;;31.73;7.35;;;;;;;;;;4986282;28;20030;-40
2021/07/31 01:58:45;;;;;;;34.67;7.43;;;;;;;;;;4988871;28;20097;-38
2021/07/31 02:01:12;;;;;;;33.55;7.88;;;;;;;;;;4988399;28;20022;-40
2021/07/31 02:03:39;;;;;;;38.55;8.20;;;;;;;;;;4989642;28;20080;-39
2021/07/31 02:06:06;;;;;;;34.30;7.45;;;;;;;;;;4988097;28;20037;-38
2021/07/31 02:08:33;;;;;;;30.27;7.43;;;;;;;;;;4989353;28;20068;-39
2021/07/31 02:11:01;;;;;;;32.97;6.97;;;;;;;;;;4988886;28;20026;-38
2021/07/31 02:13:28;;;;;;;28.48;7.00;;;;;;;;;;4988468;28;20246;-39
2021/07/31 02:15:55;;;;;;;28.17;6.40;;;;;;;;;;4988523;28;20027;-38
2021/07/31 02:18:21;;;;;;;21.45;6.13;;;;;;;;;;4987916;28;20049;-37
2021/07/31 02:20:49;;;;;;;26.40;7.32;;;;;;;;;;4989436;28;20030;-38
2021/07/31 02:23:15;;;;;;;25.27;6.65;;;;;;;;;;4987472;28;20386;-38
2021/07/31 02:25:42;;;;;;;28.08;6.43;;;;;;;;;;4989873;28;20033;-43
2021/07/31 02:28:09;;;;;;;27.23;6.88;;;;;;;;;;4990074;28;20022;-37
2021/07/31 02:30:36;;;;;;;24.38;6.70;;;;;;;;;;4987520;28;20022;-37
2021/07/31 02:33:03;;;;;;;23.30;6.22;;;;;;;;;;4989547;28;20057;-42
2021/07/31 02:35:33;;;;;;;23.25;5.95;;;;;;;;;;4986468;28;20031;-39
2021/07/31 02:38:01;;;;;;;21.75;5.60;;;;;;;;;;4991181;28;20030;-48
2021/07/31 02:40:29;;;;;;;27.92;6.32;;;;;;;;;;4991572;28;20482;-52
2021/07/31 02:42:56;;;;;;;25.40;6.20;;;;;;;;;;4986211;28;20022;-52
2021/07/31 02:45:23;;;;;;;23.10;5.60;;;;;;;;;;4990933;28;20030;-40
2021/07/31 02:47:51;;;;;;;24.70;5.80;;;;;;;;;;4991469;28;20022;-47
2021/07/31 02:50:18;;;;;;;24.38;5.57;;;;;;;;;;4990651;28;20681;-41
2021/07/31 02:52:45;;;;;;;18.27;5.88;;;;;;;;;;4991380;28;20073;-51
2021/07/31 02:55:12;;;;;;;21.50;6.13;;;;;;;;;;4990807;28;20374;-42
2021/07/31 02:57:39;;;;;;;19.65;5.30;;;;;;;;;;4990646;28;20041;-43
2021/07/31 03:00:07;;;;;;;19.48;6.28;;;;;;;;;;4989167;28;20069;-50
2021/07/31 03:02:34;;;;;;;22.92;6.63;;;;;;;;;;4990715;28;20057;-50
2021/07/31 03:05:01;;;;;;;22.05;5.90;;;;;;;;;;4990326;28;20097;-48
2021/07/31 03:07:28;;;;;;;18.42;5.68;;;;;;;;;;4991142;28;20022;-41
2021/07/31 03:09:55;;;;;;;20.05;6.32;;;;;;;;;;4990639;28;20022;-45
2021/07/31 03:12:22;;;;;;;22.65;6.70;;;;;;;;;;4990712;28;20022;-47
2021/07/31 03:14:49;;;;;;;24.90;6.60;;;;;;;;;;4990596;28;20026;-39
2021/07/31 03:17:17;;;;;;;33.05;6.75;;;;;;;;;;4990660;28;20018;-47
2021/07/31 03:19:47;;;;;;;27.40;6.32;;;;;;;;;;4990517;28;20042;-41
2021/07/31 03:22:14;;;;;;;20.10;5.75;;;;;;;;;;4990560;28;20030;-44
2021/07/31 03:24:42;;;;;;;22.08;5.68;;;;;;;;;;4990120;28;20509;-53
2021/07/31 03:27:09;;;;;;;17.83;5.53;;;;;;;;;;4989561;28;20027;-42
2021/07/31 03:29:36;;;;;;;26.30;6.00;;;;;;;;;;4990636;28;20035;-46
2021/07/31 03:32:03;;;;;;;26.15;5.22;;;;;;;;;;4989727;28;20042;-46
2021/07/31 03:34:31;;;;;;;22.88;5.47;;;;;;;;;;4995436;28;20488;-40
2021/07/31 03:36:58;;;;;;;24.05;6.13;;;;;;;;;;5010108;28;20146;-41
2021/07/31 03:39:26;;;;;;;21.55;5.90;;;;;;;;;;5011681;28;20022;-39
2021/07/31 03:41:55;;;;;;;21.95;5.72;;;;;;;;;;4994166;28;20022;-43
2021/07/31 03:44:23;;;;;;;23.40;5.53;;;;;;;;;;4993542;28;20029;-43
2021/07/31 03:46:50;;;;;;;19.83;6.15;;;;;;;;;;4994430;28;20030;-40
2021/07/31 03:49:17;;;;;;;29.60;5.68;;;;;;;;;;4994507;28;20018;-42
2021/07/31 03:51:44;;;;;;;16.02;4.82;;;;;;;;;;4993942;28;20034;-41
2021/07/31 03:54:11;;;;;;;25.58;5.50;;;;;;;;;;4994274;28;20120;-39
2021/07/31 03:56:38;;;;;;;24.80;5.50;;;;;;;;;;4994264;28;20259;-41
2021/07/31 03:59:05;;;;;;;27.10;6.07;;;;;;;;;;4994376;28;20049;-41
2021/07/31 04:01:32;;;;;;;25.33;5.60;;;;;;;;;;4994229;28;20422;-44
2021/07/31 04:03:59;;;;;;;25.70;5.82;;;;;;;;;;4995347;28;20492;-42
2021/07/31 04:06:26;;;;;;;31.52;5.63;;;;;;;;;;4993757;28;20049;-42
2021/07/31 04:08:53;;;;;;;20.00;5.40;;;;;;;;;;4994831;28;20473;-42
2021/07/31 04:11:20;;;;;;;25.75;5.72;;;;;;;;;;4993947;28;20632;-40
2021/07/31 04:13:47;;;;;;;26.23;5.85;;;;;;;;;;4994713;28;20068;-39
2021/07/31 04:16:14;;;;;;;27.40;5.53;;;;;;;;;;4993244;28;20382;-40
2021/07/31 04:18:41;;;;;;;23.20;5.70;;;;;;;;;;4992729;28;20104;-41
2021/07/31 04:21:11;;;;;;;29.40;5.18;;;;;;;;;;4994560;28;20470;-40
2021/07/31 04:23:38;;;;;;;18.65;4.80;;;;;;;;;;4993949;28;20486;-41
2021/07/31 04:26:12;;;;;;;25.42;5.13;;;;;;;;;;4994470;28;20049;-41
2021/07/31 04:28:39;;;;;;;19.23;5.15;;;;;;;;;;4994273;28;20066;-41
2021/07/31 04:31:10;;;;;;;23.17;5.00;;;;;;;;;;4993372;28;20548;-41
2021/07/31 04:33:37;;;;;;;23.20;4.88;;;;;;;;;;4994234;28;20022;-41
2021/07/31 04:36:04;;;;;;;23.88;5.30;;;;;;;;;;4994879;28;20490;-41
2021/07/31 04:38:31;;;;;;;23.67;5.07;;;;;;;;;;4994348;28;20030;-42
2021/07/31 04:40:58;;;;;;;26.67;6.65;;;;;;;;;;4994704;28;20031;-41
2021/07/31 04:43:25;;;;;;;26.35;5.15;;;;;;;;;;4994261;28;20569;-41
2021/07/31 04:45:52;;;;;;;22.05;5.13;;;;;;;;;;4994667;28;20370;-41
2021/07/31 04:48:19;;;;;;;13.07;5.05;;;;;;;;;;4992908;28;20030;-40
2021/07/31 04:50:46;;;;;;;21.75;5.53;;;;;;;;;;4993354;28;20105;-40
2021/07/31 04:53:13;;;;;;;19.58;4.80;;;;;;;;;;4994296;28;20041;-40
2021/07/31 04:55:40;;;;;;;15.60;4.80;;;;;;;;;;4993950;28;20022;-40
2021/07/31 04:58:07;;;;;;;21.58;4.90;;;;;;;;;;4994624;28;20023;-40
2021/07/31 05:00:34;;;;;;;17.75;4.32;;;;;;;;;;4993926;28;20073;-40
2021/07/31 05:03:05;;;;;;;22.58;5.32;;;;;;;;;;4992945;28;20030;-41
2021/07/31 05:05:32;;;;;;;21.58;5.30;;;;;;;;;;4993892;28;20034;-40
2021/07/31 05:08:00;;;;;;;21.85;5.10;;;;;;;;;;4994283;28;20101;-40
2021/07/31 05:10:27;;;;;;;21.23;4.60;;;;;;;;;;4993772;28;20023;-39
2021/07/31 05:12:54;;;;;;;19.08;5.55;;;;;;;;;;4994073;28;20445;-40
2021/07/31 05:15:21;;;;;;;16.83;4.18;;;;;;;;;;4993765;28;20022;-40
2021/07/31 05:17:48;;;;;;;21.50;5.00;;;;;;;;;;4993854;28;20048;-40
2021/07/31 05:20:15;;;;;;;19.95;5.32;;;;;;;;;;4993612;28;20018;-40
2021/07/31 05:22:42;;;;;;;21.10;4.38;;;;;;;;;;4993827;28;20114;-40
2021/07/31 05:25:09;;;;;;;18.77;5.00;;;;;;;;;;4993577;28;20097;-40
2021/07/31 05:27:36;;;;;;;23.27;5.15;;;;;;;;;;4994136;28;20061;-40
2021/07/31 05:30:03;;;;;;;19.75;5.10;;;;;;;;;;4993493;28;20081;-40
2021/07/31 05:32:30;;;;;;;21.77;4.82;;;;;;;;;;4993408;28;20037;-42
2021/07/31 05:34:57;;;;;;;18.23;4.68;;;;;;;;;;4992443;28;20057;-40
2021/07/31 05:37:24;;;;;;;21.45;5.07;;;;;;;;;;4993470;28;20022;-40
2021/07/31 05:39:51;;;;;;;22.23;5.00;;;;;;;;;;4993739;28;20026;-40
2021/07/31 05:42:18;;;;;;;26.85;4.88;;;;;;;;;;4993150;28;20034;-41
2021/07/31 05:44:45;;;;;;;23.90;5.57;;;;;;;;;;4993629;28;20585;-40
2021/07/31 05:47:12;;;;;;;25.92;5.50;;;;;;;;;;4993033;28;20355;-40
2021/07/31 05:49:39;;;;;;;18.90;4.15;;;;;;;;;;4993573;28;20533;-41
2021/07/31 05:52:06;;;;;;;24.70;5.10;;;;;;;;;;4993102;28;20042;-41
2021/07/31 05:54:36;;;;;;;31.58;5.50;;;;;;;;;;4993323;28;20033;-40
2021/07/31 05:57:03;;;;;;;18.15;4.35;;;;;;;;;;4993194;28;20026;-40
2021/07/31 05:59:30;;;;;;;18.70;4.40;;;;;;;;;;4993460;28;20506;-40
2021/07/31 06:01:57;;;;;;;22.60;4.78;;;;;;;;;;4992507;28;20030;-43
2021/07/31 06:04:24;;;;;;;19.23;5.00;;;;;;;;;;4993033;28;20117;-40
2021/07/31 06:06:51;;;;;;;15.70;4.95;;;;;;;;;;4992840;28;20026;-40
2021/07/31 06:09:18;;;;;;;22.98;5.60;;;;;;;;;;4993169;28;20019;-40
2021/07/31 06:11:45;;;;;;;14.00;3.92;;;;;;;;;;4993071;28;20034;-40
2021/07/31 06:14:12;;;;;;;16.02;4.63;;;;;;;;;;4992659;28;20018;-41
2021/07/31 06:16:39;;;;;;;24.20;4.80;;;;;;;;;;4992785;28;20053;-41
2021/07/31 06:19:06;;;;;;;16.60;4.93;;;;;;;;;;4992353;28;20534;-41
2021/07/31 06:21:33;;;;;;;16.98;5.03;;;;;;;;;;4993198;28;20410;-45
2021/07/31 06:24:00;;;;;;;14.38;4.40;;;;;;;;;;4991010;28;20469;-41
2021/07/31 06:26:27;;;;;;;17.02;4.40;;;;;;;;;;4992733;28;20026;-40
2021/07/31 06:28:54;;;;;;;19.10;5.35;;;;;;;;;;4992433;28;20053;-40
2021/07/31 06:31:21;;;;;;;16.40;4.60;;;;;;;;;;4992615;28;20057;-40
2021/07/31 06:33:48;;;;;;;20.05;4.88;;;;;;;;;;4991835;28;20026;-40
2021/07/31 06:36:21;;;;;;;22.48;4.68;;;;;;;;;;4993020;28;20110;-41
2021/07/31 06:38:48;;;;;;;18.50;5.03;;;;;;;;;;4991046;28;20359;-40
2021/07/31 06:41:15;;;;;;;17.13;4.25;;;;;;;;;;4992774;28;20030;-41
2021/07/31 06:43:42;;;;;;;18.70;4.75;;;;;;;;;;4991840;28;20772;-41
2021/07/31 06:46:17;;;;;;;18.95;4.65;;;;;;;;;;4992621;28;20022;-41
2021/07/31 06:48:44;;;;;;;23.95;4.60;;;;;;;;;;4992290;28;20029;-41
2021/07/31 06:51:11;;;;;;;18.83;3.97;;;;;;;;;;4992278;28;20634;-39
2021/07/31 06:53:38;;;;;;;16.80;4.20;;;;;;;;;;4992581;28;20037;-40
2021/07/31 06:56:05;;;;;;;21.85;4.15;;;;;;;;;;4991659;28;20141;-40
2021/07/31 06:58:32;;;;;;;15.25;4.38;;;;;;;;;;4992278;28;20026;-40
2021/07/31 07:00:59;;;;;;;18.75;4.35;;;;;;;;;;4992167;28;20018;-41
2021/07/31 07:03:26;;;;;;;20.13;4.82;;;;;;;;;;4992495;28;20429;-41
2021/07/31 07:05:53;;;;;;;18.02;5.18;;;;;;;;;;4991732;28;20022;-41
2021/07/31 07:08:22;;;;;;;16.92;4.15;;;;;;;;;;4992383;28;20025;-41
2021/07/31 07:10:49;;;;;;;13.70;4.30;;;;;;;;;;4991699;28;20113;-41
2021/07/31 07:13:16;;;;;;;19.23;4.55;;;;;;;;;;4993273;28;20034;-41
2021/07/31 07:15:43;;;;;;;18.92;4.45;;;;;;;;;;4995834;28;20034;-41
2021/07/31 07:18:10;;;;;;;17.35;4.03;;;;;;;;;;4996051;28;20720;-41
2021/07/31 07:20:37;;;;;;;19.00;5.18;;;;;;;;;;4995812;28;20033;-40
2021/07/31 07:23:04;;;;;;;14.98;4.50;;;;;;;;;;4996387;28;20023;-41
2021/07/31 07:25:31;;;;;;;17.13;4.63;;;;;;;;;;4995403;28;20030;-41
2021/07/31 07:27:58;;;;;;;22.00;4.45;;;;;;;;;;4996066;28;20023;-40
2021/07/31 07:30:25;;;;;;;15.10;4.30;;;;;;;;;;4996215;28;20021;-41
2021/07/31 07:32:53;;;;;;;13.75;4.40;;;;;;;;;;4995750;28;20041;-41
2021/07/31 07:35:20;;;;;;;15.35;4.45;;;;;;;;;;4995743;28;20478;-41
2021/07/31 07:37:47;;;;;;;17.40;4.25;;;;;;;;;;4994246;28;20104;-42
2021/07/31 07:40:15;;;;;;;18.30;4.15;;;;;;;;;;4996077;28;20146;-41
2021/07/31 07:42:42;;;;;;;15.50;4.40;;;;;;;;;;4995348;28;20108;-41
2021/07/31 07:45:09;;;;;;;22.98;4.30;;;;;;;;;;4995675;28;20030;-40
2021/07/31 07:47:36;;;;;;;18.05;4.72;;;;;;;;;;4995522;28;20028;-41
2021/07/31 07:50:05;;;;;;;13.07;4.18;;;;;;;;;;4995679;28;20034;-40
2021/07/31 07:52:32;;;;;;;15.73;4.28;;;;;;;;;;4995160;28;20027;-40
2021/07/31 07:54:59;;;;;;;12.80;4.38;;;;;;;;;;4995544;28;20067;-41
2021/07/31 07:57:26;;;;;;;14.73;4.20;;;;;;;;;;4995152;28;20026;-41
2021/07/31 07:59:53;;;;;;;16.05;4.55;;;;;;;;;;4995602;28;20022;-41
2021/07/31 08:02:20;;;;;;;13.77;3.97;;;;;;;;;;4995176;28;20031;-40
2021/07/31 08:04:47;;;;;;;16.83;4.28;;;;;;;;;;4995399;28;20026;-40
2021/07/31 08:07:14;;;;;;;14.43;4.95;;;;;;;;;;4994770;28;20034;-41
2021/07/31 08:09:42;;;;;;;16.25;4.28;;;;;;;;;;4995567;28;20422;-40
2021/07/31 08:12:09;;;;;;;15.10;4.22;;;;;;;;;;4995058;28;20507;-40
2021/07/31 08:14:37;;;;;;;13.50;4.10;;;;;;;;;;4994800;28;20027;-40
2021/07/31 08:17:04;;;;;;;24.40;4.38;;;;;;;;;;4995264;28;20097;-40
2021/07/31 08:19:31;;;;;;;16.15;3.70;;;;;;;;;;4994430;28;20532;-40
2021/07/31 08:21:58;;;;;;;16.77;3.75;;;;;;;;;;4995114;28;20508;-40
2021/07/31 08:24:25;;;;;;;20.90;4.35;;;;;;;;;;4994446;28;20482;-41
2021/07/31 08:26:52;;;;;;;17.77;4.47;;;;;;;;;;4994848;28;20038;-40
2021/07/31 08:29:20;;;;;;;13.98;3.90;;;;;;;;;;4994583;28;20030;-41
2021/07/31 08:31:49;;;;;;;15.10;4.00;;;;;;;;;;4995051;28;20502;-40
2021/07/31 08:34:17;;;;;;;13.93;4.28;;;;;;;;;;4994385;28;20058;-40
2021/07/31 08:36:44;;;;;;;16.52;3.50;;;;;;;;;;4994742;28;20029;-41
2021/07/31 08:39:11;;;;;;;12.90;3.60;;;;;;;;;;4994592;28;20022;-40
2021/07/31 08:41:39;;;;;;;14.63;3.40;;;;;;;;;;4993562;28;20030;-40
2021/07/31 08:44:06;;;;;;;16.42;3.90;;;;;;;;;;4994186;28;20105;-40
2021/07/31 08:46:35;;;;;;;11.02;3.47;;;;;;;;;;4994432;28;20022;-42
2021/07/31 08:49:02;;;;;;;14.77;4.43;;;;;;;;;;4994352;28;20402;-40
2021/07/31 08:51:30;;;;;;;15.32;4.65;;;;;;;;;;4994510;28;20114;-40
2021/07/31 08:54:01;;;;;;;16.23;3.70;;;;;;;;;;4994678;28;20108;-40
2021/07/31 08:56:29;;;;;;;10.23;3.40;;;;;;;;;;4994162;28;20053;-40
2021/07/31 08:58:57;;;;;;;12.30;3.63;;;;;;;;;;4993198;28;20029;-40
2021/07/31 09:01:24;;;;;;;9.93;3.50;;;;;;;;;;4993918;28;20045;-40
2021/07/31 09:03:54;;;;;;;11.20;3.30;;;;;;;;;;4994646;28;20022;-41
2021/07/31 09:06:27;;;;;;;8.50;2.60;;;;;;;;;;4993677;28;20030;-41
2021/07/31 09:08:56;;;;;;;9.85;3.38;;;;;;;;;;4993073;28;20030;-40
2021/07/31 09:11:23;;;;;;;12.60;3.03;;;;;;;;;;4993767;28;20509;-41
2021/07/31 09:14:08;;;;;;;8.98;3.15;;;;;;;;;;4994399;28;20030;-41
2021/07/31 09:16:35;;;;;;;13.80;3.20;;;;;;;;;;4993620;28;20037;-41
2021/07/31 09:19:06;;;;;;;12.20;3.40;;;;;;;;;;4994058;28;20065;-41
2021/07/31 09:21:33;;;;;;;13.68;3.10;;;;;;;;;;4993443;28;20025;-41
2021/07/31 09:24:00;;;;;;;7.90;2.80;;;;;;;;;;4994169;28;20073;-40
2021/07/31 09:26:27;;;;;;;12.38;2.80;;;;;;;;;;4993360;28;20049;-40
2021/07/31 09:29:03;;;;;;;11.98;2.83;;;;;;;;;;4993784;28;20081;-40
2021/07/31 09:31:31;;;;;;;7.18;2.85;;;;;;;;;;4993336;28;20036;-41
2021/07/31 09:34:02;;;;;;;11.82;3.33;;;;;;;;;;4994019;28;20030;-40
2021/07/31 09:36:36;;;;;;;8.80;2.70;;;;;;;;;;4992415;28;20026;-40
2021/07/31 09:39:03;;;;;;;12.77;3.00;;;;;;;;;;4993767;28;20037;-40
2021/07/31 09:41:32;;;;;;;12.52;2.58;;;;;;;;;;4993355;28;20521;-40
2021/07/31 09:44:00;;;;;;;6.43;2.45;;;;;;;;;;4993636;28;20097;-40
2021/07/31 09:46:33;;;;;;;8.60;3.00;;;;;;;;;;4993652;28;20068;-40
2021/07/31 09:49:01;;;;;;;6.57;2.45;;;;;;;;;;4993318;28;20482;-41
2021/07/31 09:51:38;;;;;;;8.98;2.50;;;;;;;;;;4993493;28;20050;-40
2021/07/31 09:54:07;;;;;;;11.63;2.20;;;;;;;;;;4992957;28;20034;-40
2021/07/31 09:56:39;;;;;;;9.70;2.60;;;;;;;;;;4993443;28;20028;-40
2021/07/31 09:59:05;;;;;;;;;;;;;;;;;;4993337;28;20030;-40
2021/07/31 10:01:35;;;;;;;7.43;2.90;;;;;;;;;;4992002;28;19956;-41
2021/07/31 10:04:03;;;;;;;7.78;2.92;;;;;;;;;;4992888;28;20097;-40
2021/07/31 10:06:34;;;;;;;7.45;2.40;;;;;;;;;;4993234;28;20382;-41
2021/07/31 10:09:02;;;;;;;9.50;2.30;;;;;;;;;;4992665;28;20501;-40
2021/07/31 10:11:29;;;;;;;7.82;2.83;;;;;;;;;;4993194;28;20382;-40
2021/07/31 10:13:57;;;;;;;7.72;2.45;;;;;;;;;;4992360;28;20070;-40
2021/07/31 10:16:24;;;;;;;7.55;2.65;;;;;;;;;;4993176;28;20497;-41
2021/07/31 10:19:04;;;;;;;6.97;2.13;;;;;;;;;;4992462;28;20050;-40
2021/07/31 10:21:34;;;;;;;4.63;2.08;;;;;;;;;;4992897;28;20029;-41
2021/07/31 10:24:06;;;;;;;10.38;2.72;;;;;;;;;;4992521;28;20041;-41
2021/07/31 10:26:34;;;;;;;9.55;2.65;;;;;;;;;;4992916;28;20033;-41
2021/07/31 10:29:21;;;;;;;5.57;2.10;;;;;;;;;;4992374;28;20544;-41
2021/07/31 10:31:49;;;;;;;12.23;2.83;;;;;;;;;;4982745;28;20069;-40
2021/07/31 10:34:34;;;;;;;8.07;2.13;;;;;;;;;;4992181;28;20026;-41
2021/07/31 10:37:03;;;;;;;8.10;2.10;;;;;;;;;;4992580;28;20033;-40
2021/07/31 10:39:30;;;;;;;4.88;1.92;;;;;;;;;;4991867;28;20255;-41
2021/07/31 10:41:57;;;;;;;10.95;2.95;;;;;;;;;;4992647;28;20475;-40
2021/07/31 10:44:25;;;;;;;7.38;1.95;;;;;;;;;;4992107;28;20109;-40
2021/07/31 10:47:12;;;;;;;11.43;2.90;;;;;;;;;;4991254;28;20556;-39
2021/07/31 10:49:39;;;;;;;5.32;2.05;;;;;;;;;;4961825;28;20038;-40
2021/07/31 10:52:06;;;;;;;7.07;2.00;;;;;;;;;;4992651;28;20117;-40
2021/07/31 10:54:51;;;;;;;8.68;2.20;;;;;;;;;;4991924;28;20014;-51
2021/07/31 10:57:18;;;;;;;9.40;1.80;;;;;;;;;;4992473;28;20037;-54
2021/07/31 11:00:04;;;;;;;3.97;1.83;;;;;;;;;;4991759;28;20400;-53
2021/07/31 11:02:38;;;;;;;5.30;2.08;;;;;;;;;;4992353;28;20026;-41
2021/07/31 11:05:05;;;;;;;13.40;2.17;;;;;;;;;;4991813;28;20022;-40
2021/07/31 11:07:54;;;;;;;6.40;1.73;;;;;;;;;;4991196;28;20037;-43
2021/07/31 11:10:32;;;;;;;5.15;1.70;;;;;;;;;;4991779;28;20034;-40
2021/07/31 11:12:59;;;;;;;5.95;1.95;;;;;;;;;;4992387;28;20165;-40
2021/07/31 11:15:26;;;;;;;8.88;2.38;;;;;;;;;;4990390;28;20034;-41
2021/07/31 11:18:01;;;;;;;7.13;2.08;;;;;;;;;;4992059;28;20049;-40
2021/07/31 11:20:29;;;;;;;12.25;2.25;;;;;;;;;;4992071;28;20083;-45
2021/07/31 11:22:57;;;;;;;9.63;2.45;;;;;;;;;;4988988;28;20105;-53
2021/07/31 11:25:24;;;;;;;8.63;2.33;;;;;;;;;;4991123;28;20363;-42
2021/07/31 11:27:58;;;;;;;9.73;2.00;;;;;;;;;;4990509;28;20390;-41
2021/07/31 11:30:37;;;;;;;7.97;1.98;;;;;;;;;;4990658;28;20509;-41
2021/07/31 11:33:17;;;;;;;14.10;2.00;;;;;;;;;;4988800;28;20038;-45
2021/07/31 11:35:45;;;;;;;7.70;2.00;;;;;;;;;;4989157;28;20026;-49
2021/07/31 11:38:27;;;;;;;8.02;2.22;;;;;;;;;;4990995;28;20068;-42
2021/07/31 11:41:13;;;;;;;8.95;1.98;;;;;;;;;;4987017;28;20533;-42
2021/07/31 11:43:44;;;;;;;11.38;2.38;;;;;;;;;;4990413;28;20033;-45
2021/07/31 11:46:23;;;;;;;12.65;2.22;;;;;;;;;;4992014;28;20509;-41
2021/07/31 11:48:50;;;;;;;13.02;1.75;;;;;;;;;;4991115;28;20062;-44
2021/07/31 11:51:17;;;;;;;5.55;1.90;;;;;;;;;;5001207;28;20113;-43
2021/07/31 11:53:45;;;;;;;7.05;1.92;;;;;;;;;;4988232;28;20037;-43
2021/07/31 11:56:13;;;;;;;6.82;1.77;;;;;;;;;;4990744;28;20084;-42
2021/07/31 11:58:44;;;;;;;11.25;2.05;;;;;;;;;;4990730;28;20431;-42
2021/07/31 12:01:11;;;;;;;11.00;2.00;;;;;;;;;;4993565;28;20069;-42
2021/07/31 12:03:42;;;;;;;9.43;2.35;;;;;;;;;;4992756;28;20196;-42
2021/07/31 12:06:27;;;;;;;5.95;1.67;;;;;;;;;;4994355;28;20053;-41
2021/07/31 12:08:57;;;;;;;8.38;1.90;;;;;;;;;;4994643;28;20046;-43
2021/07/31 12:11:50;;;;;;;5.68;1.70;;;;;;;;;;4994637;28;20107;-42
2021/07/31 12:14:33;;;;;;;6.10;1.58;;;;;;;;;;4991114;28;20046;-41
2021/07/31 12:17:19;;;;;;;10.98;1.67;;;;;;;;;;4992962;28;20030;-41
2021/07/31 12:19:47;;;;;;;4.63;1.60;;;;;;;;;;4993503;28;20090;-51
2021/07/31 12:22:25;;;;;;;8.38;1.63;;;;;;;;;;4992730;28;20026;-42
2021/07/31 12:25:10;;;;;;;12.82;2.22;;;;;;;;;;4993977;28;20034;-42
2021/07/31 12:27:55;;;;;;;8.00;2.13;;;;;;;;;;4990592;28;20038;-42
2021/07/31 12:30:38;;;;;;;9.48;1.77;;;;;;;;;;4994025;28;20076;-42
2021/07/31 12:33:09;;;;;;;10.20;1.73;;;;;;;;;;4994168;28;20041;-42
2021/07/31 12:35:36;;;;;;;5.18;1.52;;;;;;;;;;4993624;28;20109;-42
2021/07/31 12:38:04;;;;;;;8.57;1.55;;;;;;;;;;4994239;28;20022;-42
2021/07/31 12:40:31;;;;;;;9.15;1.98;;;;;;;;;;4991741;28;20102;-46
2021/07/31 12:42:58;;;;;;;10.77;1.88;;;;;;;;;;4993665;28;20149;-41
2021/07/31 12:45:31;;;;;;;8.60;1.48;;;;;;;;;;4992432;28;20027;-43
2021/07/31 12:47:58;;;;;;;7.90;1.65;;;;;;;;;;4994299;28;20030;-45
2021/07/31 12:50:25;;;;;;;8.60;2.35;;;;;;;;;;4992507;28;20018;-42
2021/07/31 12:52:52;;;;;;;8.57;1.58;;;;;;;;;;4992237;28;20030;-42
2021/07/31 12:55:19;;;;;;;5.68;1.67;;;;;;;;;;4992819;28;20549;-43
2021/07/31 12:57:48;;;;;;;9.27;1.95;;;;;;;;;;4993207;28;20022;-43
2021/07/31 13:00:16;;;;;;;9.35;1.85;;;;;;;;;;4993134;28;20034;-42
2021/07/31 13:02:44;;;;;;;6.80;1.60;;;;;;;;;;4991108;28;20475;-41
2021/07/31 13:05:12;;;;;;;13.57;2.17;;;;;;;;;;4991905;28;20172;-41
2021/07/31 13:07:39;;;;;;;9.05;1.90;;;;;;;;;;4992715;28;20466;-40
2021/07/31 13:10:06;;;;;;;10.55;1.70;;;;;;;;;;4992303;28;20025;-50
2021/07/31 13:12:33;;;;;;;10.20;1.90;;;;;;;;;;4991094;28;20047;-45
2021/07/31 13:15:00;;;;;;;7.40;1.73;;;;;;;;;;4992015;28;20124;-43
2021/07/31 13:17:27;;;;;;;14.07;2.33;;;;;;;;;;4990825;28;20018;-44
2021/07/31 13:19:55;;;;;;;11.20;2.03;;;;;;;;;;4992570;28;20034;-44
2021/07/31 13:22:22;;;;;;;5.15;1.85;;;;;;;;;;4991678;28;20033;-43
2021/07/31 13:24:49;;;;;;;10.98;2.08;;;;;;;;;;4993392;28;20034;-40
2021/07/31 13:27:16;;;;;;;11.70;2.00;;;;;;;;;;4990369;28;20018;-44
2021/07/31 13:29:43;;;;;;;12.90;1.63;;;;;;;;;;4993208;28;20430;-43
2021/07/31 13:32:10;;;;;;;12.70;1.80;;;;;;;;;;4992239;28;20042;-45
2021/07/31 13:34:37;;;;;;;12.55;1.55;;;;;;;;;;4992549;28;20029;-45
2021/07/31 13:37:06;;;;;;;15.30;2.00;;;;;;;;;;4992046;28;20035;-42
2021/07/31 13:39:42;;;;;;;6.95;1.75;;;;;;;;;;4989489;28;20490;-48
2021/07/31 13:42:10;;;;;;;10.90;2.15;;;;;;;;;;4992348;28;20034;-43
2021/07/31 13:44:37;;;;;;;11.02;2.17;;;;;;;;;;4992329;28;20022;-41
2021/07/31 13:47:07;;;;;;;10.00;2.13;;;;;;;;;;4992099;28;20142;-43
2021/07/31 13:49:34;;;;;;;13.45;1.80;;;;;;;;;;4989244;28;20080;-42
2021/07/31 13:52:02;;;;;;;16.52;2.10;;;;;;;;;;4990405;28;20042;-45
2021/07/31 13:54:29;;;;;;;18.33;1.98;;;;;;;;;;4993082;28;20094;-42
2021/07/31 13:56:57;;;;;;;11.00;2.05;;;;;;;;;;4992256;28;20118;-42
2021/07/31 13:59:25;;;;;;;14.68;2.40;;;;;;;;;;4992615;28;20014;-43
2021/07/31 14:01:52;;;;;;;12.15;2.20;;;;;;;;;;4988917;28;20042;-43
2021/07/31 14:04:20;;;;;;;12.50;2.10;;;;;;;;;;4991002;28;20019;-45
2021/07/31 14:06:47;;;;;;;12.48;2.10;;;;;;;;;;4992693;28;20027;-50
2021/07/31 14:09:14;;;;;;;11.15;1.90;;;;;;;;;;4992083;28;20076;-46
2021/07/31 14:11:42;;;;;;;13.70;2.05;;;;;;;;;;4992525;28;20058;-46
2021/07/31 14:14:09;;;;;;;16.15;2.38;;;;;;;;;;4990294;28;20026;-44
2021/07/31 14:16:36;;;;;;;10.05;2.33;;;;;;;;;;4991627;28;20430;-44
2021/07/31 14:19:03;;;;;;;13.23;2.17;;;;;;;;;;4991689;28;20049;-43
2021/07/31 14:21:30;;;;;;;10.27;2.08;;;;;;;;;;4988760;28;20113;-43
2021/07/31 14:23:57;;;;;;;27.27;2.95;;;;;;;;;;4983324;28;20019;-39
2021/07/31 14:26:24;;;;;;;13.35;1.92;;;;;;;;;;4986458;28;20505;-40
2021/07/31 14:28:51;;;;;;;12.30;2.70;;;;;;;;;;4985250;28;20449;-39
2021/07/31 14:31:18;;;;;;;10.18;1.80;;;;;;;;;;4989785;28;20030;-45
2021/07/31 14:33:45;;;;;;;9.98;2.15;;;;;;;;;;4983806;28;20035;-46
2021/07/31 14:36:12;;;;;;;12.57;2.30;;;;;;;;;;4986552;28;20088;-42
2021/07/31 14:38:40;;;;;;;8.30;1.50;;;;;;;;;;4981597;28;20030;-44